Time;durP1;ratioP1;P1;durP2;ratioP2;P2;SDS_P1;SDS_P2;PMS_P1;PMS_P2;Temp;Humidity;BMP_temperature;BMP_pressure;BME280_temperature;BME280_humidity;BME280_pressure;Samples;Min_cycle;Max_cycle;Signal;HPM_P1;HPM_P2
2023/10/16 00:02:12;;;;;;;11.52;6.20;;;;;;;;;;5070485;28;20039;-57
2023/10/16 00:04:38;;;;;;;12.63;8.05;;;;;;;;;;5069645;28;20066;-56
2023/10/16 00:07:03;;;;;;;9.13;6.60;;;;;;;;;;5070025;28;20495;-57
2023/10/16 00:09:29;;;;;;;14.13;6.70;;;;;;;;;;5068799;28;20086;-57
2023/10/16 00:11:54;;;;;;;16.65;6.53;;;;;;;;;;5069113;28;20487;-57
2023/10/16 00:14:23;;;;;;;10.50;5.95;;;;;;;;;;5064623;28;20017;-57
2023/10/16 00:16:50;;;;;;;;;;;;;;;;;;5066735;28;20621;-58
2023/10/16 00:19:15;;;;;;;12.13;7.72;;;;;;;;;;5069896;28;19920;-67
2023/10/16 00:21:43;;;;;;;16.20;7.30;;;;;;;;;;5069045;28;20476;-61
2023/10/16 00:24:12;;;;;;;9.70;6.63;;;;;;;;;;5070653;28;20473;-58
2023/10/16 00:26:42;;;;;;;;;;;;;;;;;;5069517;28;20101;-58
2023/10/16 00:29:17;;;;;;;17.33;7.40;;;;;;;;;;5070119;28;19957;-57
2023/10/16 00:31:42;;;;;;;8.85;6.53;;;;;;;;;;5068596;28;20120;-57
2023/10/16 00:34:08;;;;;;;13.82;7.68;;;;;;;;;;5070288;28;20208;-57
2023/10/16 00:36:33;;;;;;;11.02;7.93;;;;;;;;;;5068851;28;20499;-57
2023/10/16 00:39:02;;;;;;;12.17;6.60;;;;;;;;;;5067919;28;20095;-57
2023/10/16 00:41:29;;;;;;;13.75;9.75;;;;;;;;;;5063960;28;20037;-60
2023/10/16 00:43:57;;;;;;;18.17;7.63;;;;;;;;;;5070311;28;20051;-58
2023/10/16 00:46:29;;;;;;;20.42;7.72;;;;;;;;;;5068756;28;20094;-58
2023/10/16 00:48:55;;;;;;;13.35;7.50;;;;;;;;;;5069877;28;20100;-57
2023/10/16 00:51:21;;;;;;;13.18;8.70;;;;;;;;;;5068783;28;20115;-57
2023/10/16 00:53:46;;;;;;;10.25;7.93;;;;;;;;;;5070252;28;20078;-57
2023/10/16 00:56:14;;;;;;;16.42;10.32;;;;;;;;;;5068524;28;20477;-57
2023/10/16 00:58:40;;;;;;;12.73;8.73;;;;;;;;;;5070187;28;20328;-57
2023/10/16 01:01:09;;;;;;;10.70;8.95;;;;;;;;;;5068448;28;20128;-57
2023/10/16 01:03:36;;;;;;;13.98;8.45;;;;;;;;;;5069953;28;20522;-57
2023/10/16 01:06:02;;;;;;;18.15;10.52;;;;;;;;;;5068434;28;20108;-66
2023/10/16 01:08:27;;;;;;;11.15;9.60;;;;;;;;;;5070095;28;20111;-57
2023/10/16 01:10:57;;;;;;;20.27;10.33;;;;;;;;;;5067845;28;20083;-57
2023/10/16 01:13:22;;;;;;;13.35;8.93;;;;;;;;;;5070614;28;20430;-57
2023/10/16 01:15:47;;;;;;;13.98;9.30;;;;;;;;;;5068314;28;20037;-57
2023/10/16 01:18:15;;;;;;;13.05;10.48;;;;;;;;;;5069857;28;20371;-57
2023/10/16 01:20:46;;;;;;;15.18;9.20;;;;;;;;;;5060322;28;20503;-68
2023/10/16 01:23:11;;;;;;;15.15;11.13;;;;;;;;;;5070374;28;20043;-57
2023/10/16 01:25:36;;;;;;;14.30;11.00;;;;;;;;;;5068148;28;20036;-57
2023/10/16 01:28:04;;;;;;;19.13;12.60;;;;;;;;;;5069745;28;20020;-57
2023/10/16 01:30:29;;;;;;;16.50;11.23;;;;;;;;;;5071969;28;20048;-57
2023/10/16 01:32:54;;;;;;;17.23;10.73;;;;;;;;;;5073030;28;20042;-57
2023/10/16 01:35:20;;;;;;;12.98;11.00;;;;;;;;;;5071470;28;20542;-57
2023/10/16 01:37:46;;;;;;;15.80;10.98;;;;;;;;;;5073267;28;20027;-57
2023/10/16 01:40:17;;;;;;;16.85;11.75;;;;;;;;;;5071657;28;20037;-57
2023/10/16 01:42:42;;;;;;;20.90;10.32;;;;;;;;;;5073516;28;20031;-57
2023/10/16 01:45:08;;;;;;;17.63;12.00;;;;;;;;;;5071339;28;20032;-57
2023/10/16 01:47:34;;;;;;;22.33;14.27;;;;;;;;;;5072919;28;20368;-58
2023/10/16 01:50:01;;;;;;;14.55;11.25;;;;;;;;;;5063601;28;20094;-58
2023/10/16 01:52:26;;;;;;;22.55;12.80;;;;;;;;;;5072772;28;20013;-58
2023/10/16 01:54:53;;;;;;;20.95;13.07;;;;;;;;;;5071081;28;20032;-57
2023/10/16 01:57:20;;;;;;;19.85;12.25;;;;;;;;;;5072668;28;20017;-70
2023/10/16 01:59:47;;;;;;;16.42;12.15;;;;;;;;;;5070512;28;20021;-57
2023/10/16 02:02:13;;;;;;;12.95;11.35;;;;;;;;;;5072456;28;20008;-57
2023/10/16 02:04:38;;;;;;;18.45;14.65;;;;;;;;;;5071304;28;20020;-57
2023/10/16 02:07:06;;;;;;;18.55;13.02;;;;;;;;;;5072900;28;20025;-58
2023/10/16 02:09:31;;;;;;;23.05;13.32;;;;;;;;;;5072192;28;20108;-58
2023/10/16 02:12:00;;;;;;;22.02;12.95;;;;;;;;;;5070946;28;20128;-58
2023/10/16 02:14:25;;;;;;;15.48;10.40;;;;;;;;;;5054190;28;20079;-58
2023/10/16 02:16:51;;;;;;;26.77;13.80;;;;;;;;;;5068927;28;20074;-58
2023/10/16 02:19:16;;;;;;;20.33;13.25;;;;;;;;;;5072287;28;20357;-57
2023/10/16 02:21:42;;;;;;;13.95;12.52;;;;;;;;;;5070992;28;20037;-58
2023/10/16 02:24:07;;;;;;;15.02;12.80;;;;;;;;;;5072223;28;20028;-58
2023/10/16 02:26:44;;;;;;;21.13;15.00;;;;;;;;;;5070954;28;20414;-65
2023/10/16 02:29:12;;;;;;;21.40;12.93;;;;;;;;;;5064363;28;20070;-68
2023/10/16 02:31:39;;;;;;;11.23;9.23;;;;;;;;;;5069785;28;20132;-57
2023/10/16 02:34:12;;;;;;;18.92;11.50;;;;;;;;;;5072122;28;20036;-57
2023/10/16 02:36:37;;;;;;;19.70;13.13;;;;;;;;;;5070931;28;20929;-57
2023/10/16 02:39:07;;;;;;;27.45;14.40;;;;;;;;;;5071053;28;20024;-58
2023/10/16 02:41:33;;;;;;;17.17;10.88;;;;;;;;;;5069334;28;20062;-57
2023/10/16 02:43:58;;;;;;;13.02;11.70;;;;;;;;;;5072099;28;20017;-58
2023/10/16 02:46:23;;;;;;;18.93;13.33;;;;;;;;;;5070147;28;20573;-58
2023/10/16 02:48:52;;;;;;;20.30;13.73;;;;;;;;;;5056884;28;20458;-58
2023/10/16 02:51:17;;;;;;;15.43;11.30;;;;;;;;;;5064353;28;20037;-57
2023/10/16 02:53:43;;;;;;;17.33;11.88;;;;;;;;;;5071655;28;20044;-58
2023/10/16 02:56:09;;;;;;;13.85;10.30;;;;;;;;;;5069959;28;20044;-58
2023/10/16 02:58:42;;;;;;;14.73;11.57;;;;;;;;;;5071640;28;20046;-58
2023/10/16 03:01:13;;;;;;;17.08;10.63;;;;;;;;;;5069502;28;20032;-58
2023/10/16 03:03:42;;;;;;;19.30;12.15;;;;;;;;;;5072107;28;20024;-58
2023/10/16 03:06:09;;;;;;;21.98;11.55;;;;;;;;;;5069917;28;20112;-58
2023/10/16 03:08:36;;;;;;;13.95;11.20;;;;;;;;;;5069795;28;20437;-58
2023/10/16 03:11:05;;;;;;;15.05;11.15;;;;;;;;;;5069680;28;20597;-57
2023/10/16 03:13:35;;;;;;;19.33;11.85;;;;;;;;;;5071828;28;20028;-57
2023/10/16 03:16:10;;;;;;;15.18;10.38;;;;;;;;;;5069657;28;20595;-57
2023/10/16 03:18:42;;;;;;;14.40;12.02;;;;;;;;;;5071423;28;20024;-57
2023/10/16 03:21:28;;;;;;;19.02;11.30;;;;;;;;;;5069277;28;20056;-72
2023/10/16 03:23:53;;;;;;;15.30;9.82;;;;;;;;;;5069946;28;20471;-58
2023/10/16 03:28:47;;;;;;;;;;;;;;;;;;5071839;28;20054;-58
2023/10/16 03:31:12;;;;;;;15.63;11.77;;;;;;;;;;5068954;28;19998;-57
2023/10/16 03:33:38;;;;;;;13.70;10.57;;;;;;;;;;5071135;28;20030;-58
2023/10/16 03:36:03;;;;;;;17.20;11.32;;;;;;;;;;5069430;28;20174;-57
2023/10/16 03:38:35;;;;;;;14.05;9.98;;;;;;;;;;5070707;28;20036;-57
2023/10/16 03:41:03;;;;;;;13.52;9.90;;;;;;;;;;5068073;28;20043;-57
2023/10/16 03:43:28;;;;;;;15.35;10.63;;;;;;;;;;5071380;28;20018;-57
2023/10/16 03:45:53;;;;;;;19.02;11.25;;;;;;;;;;5068483;28;20119;-57
2023/10/16 03:48:19;;;;;;;21.23;11.18;;;;;;;;;;5070796;28;20024;-57
2023/10/16 03:50:46;;;;;;;14.57;10.30;;;;;;;;;;5065135;28;20059;-57
2023/10/16 03:53:13;;;;;;;13.48;9.10;;;;;;;;;;5050785;28;20020;-57
2023/10/16 03:55:46;;;;;;;13.18;9.82;;;;;;;;;;5057451;28;20070;-57
2023/10/16 03:58:14;;;;;;;16.23;9.55;;;;;;;;;;5070812;28;20031;-57
2023/10/16 04:00:58;;;;;;;15.95;9.35;;;;;;;;;;5068661;28;20511;-57
2023/10/16 04:03:23;;;;;;;19.42;10.57;;;;;;;;;;5070876;28;20086;-57
2023/10/16 04:05:49;;;;;;;16.35;9.75;;;;;;;;;;5069130;28;20502;-58
2023/10/16 04:08:15;;;;;;;12.75;9.73;;;;;;;;;;5070709;28;20434;-59
2023/10/16 04:10:46;;;;;;;11.73;10.63;;;;;;;;;;5068835;28;20037;-61
2023/10/16 04:13:11;;;;;;;11.15;8.27;;;;;;;;;;5069951;28;20024;-56
2023/10/16 04:15:59;;;;;;;12.85;9.43;;;;;;;;;;5067936;28;20044;-56
2023/10/16 04:20:55;;;;;;;19.27;8.88;;;;;;;;;;5060353;28;20120;-55
2023/10/16 04:23:29;;;;;;;14.02;8.60;;;;;;;;;;5070208;28;20081;-56
2023/10/16 04:31:44;;;;;;;19.27;8.93;;;;;;;;;;5069217;28;20090;-56
2023/10/16 04:34:24;;;;;;;9.88;7.20;;;;;;;;;;5067765;28;20037;-56
2023/10/16 04:36:53;;;;;;;10.85;8.10;;;;;;;;;;5067386;28;20676;-56
2023/10/16 04:42:49;;;;;;;15.35;7.60;;;;;;;;;;5068703;28;19916;-56
2023/10/16 04:44:49;;;;;;;14.98;7.88;;;;;;;;;;5068255;28;20103;-56
2023/10/16 04:47:17;;;;;;;9.68;7.15;;;;;;;;;;5070535;28;20371;-55
2023/10/16 04:49:45;;;;;;;17.45;6.50;;;;;;;;;;5068791;28;20490;-55
2023/10/16 04:52:35;;;;;;;15.27;7.65;;;;;;;;;;5070189;28;20016;-55
2023/10/16 04:55:02;;;;;;;12.02;6.82;;;;;;;;;;5068380;28;20059;-56
2023/10/16 05:00:54;;;;;;;12.43;7.80;;;;;;;;;;5068548;28;20502;-56
2023/10/16 05:03:24;;;;;;;14.50;8.07;;;;;;;;;;5070515;28;20118;-56
2023/10/16 05:08:39;;;;;;;10.40;7.57;;;;;;;;;;5073849;28;20085;-56
2023/10/16 05:16:32;;;;;;;13.50;8.07;;;;;;;;;;5072811;28;20510;-56
2023/10/16 05:19:03;;;;;;;17.02;9.35;;;;;;;;;;5073561;28;20029;-56
2023/10/16 06:16:17;;;;;;;16.52;9.35;;;;;;;;;;5049780;28;20040;-55
2023/10/16 06:18:43;;;;;;;12.25;5.40;;;;;;;;;;5052484;28;20519;-55
2023/10/16 06:21:08;;;;;;;6.72;5.47;;;;;;;;;;5050572;28;20056;-55
2023/10/16 06:23:33;;;;;;;10.13;6.15;;;;;;;;;;5052460;28;20428;-55
2023/10/16 06:26:02;;;;;;;15.87;7.90;;;;;;;;;;5060425;28;20040;-55
2023/10/16 06:28:27;;;;;;;10.80;8.27;;;;;;;;;;5052296;28;20470;-55
2023/10/16 06:30:52;;;;;;;11.83;6.30;;;;;;;;;;5050620;28;20037;-55
2023/10/16 06:33:18;;;;;;;12.50;7.53;;;;;;;;;;5050750;28;20425;-55
2023/10/16 06:35:44;;;;;;;12.05;7.35;;;;;;;;;;5048441;28;20059;-55
2023/10/16 06:38:14;;;;;;;9.27;6.07;;;;;;;;;;5049896;28;20857;-55
2023/10/16 06:40:40;;;;;;;16.25;6.72;;;;;;;;;;5049227;28;20115;-55
2023/10/16 06:43:15;;;;;;;8.88;6.05;;;;;;;;;;5049837;28;20112;-55
2023/10/16 06:45:55;;;;;;;9.23;6.68;;;;;;;;;;5050973;28;20075;-55
2023/10/16 06:48:20;;;;;;;10.13;6.80;;;;;;;;;;5061610;28;20386;-55
2023/10/16 06:50:53;;;;;;;9.95;7.40;;;;;;;;;;5069938;28;20037;-55
2023/10/16 06:53:18;;;;;;;8.88;5.97;;;;;;;;;;5072019;28;20008;-55
2023/10/16 06:55:45;;;;;;;9.02;4.70;;;;;;;;;;5070481;28;20094;-55
2023/10/16 06:58:10;;;;;;;12.07;6.55;;;;;;;;;;5071338;28;20021;-55
2023/10/16 07:00:38;;;;;;;6.32;5.70;;;;;;;;;;5070468;28;20039;-55
2023/10/16 07:03:09;;;;;;;11.88;5.97;;;;;;;;;;5071325;28;20356;-55
2023/10/16 07:05:43;;;;;;;11.35;6.00;;;;;;;;;;5069820;28;20059;-55
2023/10/16 07:08:16;;;;;;;7.95;5.75;;;;;;;;;;5071607;28;20027;-55
2023/10/16 07:10:41;;;;;;;8.07;5.68;;;;;;;;;;5070229;28;20071;-55
2023/10/16 07:13:09;;;;;;;15.05;7.57;;;;;;;;;;5071058;28;20479;-55
2023/10/16 07:15:35;;;;;;;8.45;4.65;;;;;;;;;;5070167;28;20060;-55
2023/10/16 07:18:05;;;;;;;9.53;4.57;;;;;;;;;;5071251;28;20052;-55
2023/10/16 07:20:31;;;;;;;8.90;5.13;;;;;;;;;;5069805;28;20044;-55
2023/10/16 07:22:59;;;;;;;10.45;4.13;;;;;;;;;;5071241;28;20060;-56
2023/10/16 07:25:25;;;;;;;12.15;6.05;;;;;;;;;;5069729;28;20503;-55
2023/10/16 07:27:57;;;;;;;9.10;4.30;;;;;;;;;;5070565;28;20020;-56
2023/10/16 07:30:23;;;;;;;7.10;4.88;;;;;;;;;;5070048;28;20408;-56
2023/10/16 07:32:48;;;;;;;6.88;3.75;;;;;;;;;;5071036;28;20033;-56
2023/10/16 07:35:17;;;;;;;6.93;4.32;;;;;;;;;;5069116;28;20047;-56
2023/10/16 07:37:42;;;;;;;;;;;;;;;;;;5071675;28;20028;-56
2023/10/16 07:40:08;;;;;;;8.43;4.43;;;;;;;;;;5069510;28;19930;-56
2023/10/16 07:42:35;;;;;;;7.47;3.78;;;;;;;;;;5070724;28;20016;-56
2023/10/16 07:45:00;;;;;;;6.63;4.38;;;;;;;;;;5068972;28;20116;-56
2023/10/16 07:47:25;;;;;;;5.57;3.63;;;;;;;;;;5069235;28;20104;-56
2023/10/16 07:49:50;;;;;;;5.57;4.20;;;;;;;;;;5067345;28;20415;-56
2023/10/16 07:52:16;;;;;;;5.65;3.03;;;;;;;;;;5069384;28;20016;-56
2023/10/16 07:54:43;;;;;;;13.25;6.78;;;;;;;;;;5067942;28;20242;-55
2023/10/16 07:57:08;;;;;;;7.63;4.47;;;;;;;;;;5068777;28;20434;-56
2023/10/16 07:59:36;;;;;;;4.78;3.25;;;;;;;;;;5069100;28;20104;-56
2023/10/16 08:02:08;;;;;;;5.13;4.70;;;;;;;;;;5067271;28;20107;-57
2023/10/16 08:04:36;;;;;;;6.55;3.30;;;;;;;;;;5070794;28;20017;-56
2023/10/16 08:07:04;;;;;;;6.10;3.83;;;;;;;;;;5069020;28;20041;-56
2023/10/16 08:09:48;;;;;;;4.72;4.13;;;;;;;;;;5071222;28;20032;-56
2023/10/16 08:12:20;;;;;;;7.88;3.22;;;;;;;;;;5069381;28;20036;-56
2023/10/16 08:14:45;;;;;;;8.25;3.30;;;;;;;;;;5069284;28;20048;-56
2023/10/16 08:17:17;;;;;;;4.97;3.75;;;;;;;;;;5068596;28;20071;-56
2023/10/16 08:19:43;;;;;;;12.88;5.20;;;;;;;;;;5066613;28;20028;-56
2023/10/16 08:22:09;;;;;;;4.75;4.20;;;;;;;;;;5066841;28;20021;-55
2023/10/16 08:24:34;;;;;;;6.82;2.72;;;;;;;;;;5062277;28;20027;-55
2023/10/16 08:27:19;;;;;;;6.82;5.22;;;;;;;;;;5068287;28;20037;-56
2023/10/16 08:29:53;;;;;;;3.40;3.10;;;;;;;;;;5069127;28;20024;-56
2023/10/16 08:32:48;;;;;;;10.63;3.50;;;;;;;;;;5070730;28;20414;-56
2023/10/16 08:35:17;;;;;;;6.55;3.83;;;;;;;;;;5068770;28;20090;-56
2023/10/16 08:37:43;;;;;;;4.47;3.35;;;;;;;;;;5070533;28;20398;-56
2023/10/16 08:40:19;;;;;;;6.38;4.05;;;;;;;;;;5071810;28;20025;-56
2023/10/16 08:42:46;;;;;;;5.70;3.00;;;;;;;;;;5074619;28;20078;-68
2023/10/16 08:45:15;;;;;;;5.13;3.00;;;;;;;;;;5072913;28;20036;-55
2023/10/16 08:47:46;;;;;;;9.85;4.78;;;;;;;;;;5073896;28;20012;-55
2023/10/16 08:50:17;;;;;;;4.40;2.25;;;;;;;;;;5072837;28;20086;-55
2023/10/16 08:52:49;;;;;;;6.35;2.78;;;;;;;;;;5073066;28;20016;-55
2023/10/16 08:55:14;;;;;;;4.85;2.33;;;;;;;;;;5071508;28;20032;-55
2023/10/16 08:57:40;;;;;;;7.68;4.20;;;;;;;;;;5072238;28;20021;-55
2023/10/16 09:00:11;;;;;;;7.10;2.38;;;;;;;;;;5070319;28;20052;-55
2023/10/16 09:02:38;;;;;;;4.72;2.25;;;;;;;;;;5071943;28;20411;-55
2023/10/16 09:05:08;;;;;;;5.60;2.53;;;;;;;;;;5070924;28;20430;-55
2023/10/16 09:07:34;;;;;;;6.35;2.55;;;;;;;;;;5071955;28;20467;-55
2023/10/16 09:10:02;;;;;;;2.47;2.28;;;;;;;;;;5070230;28;20025;-55
2023/10/16 09:12:27;;;;;;;3.42;2.95;;;;;;;;;;5074096;28;20091;-55
2023/10/16 09:14:53;;;;;;;4.28;2.50;;;;;;;;;;5072324;28;20566;-55
2023/10/16 09:17:21;;;;;;;3.15;2.35;;;;;;;;;;5073368;28;20016;-55
2023/10/16 09:19:47;;;;;;;2.88;2.47;;;;;;;;;;5071993;28;20103;-55
2023/10/16 09:22:13;;;;;;;3.75;2.78;;;;;;;;;;5073850;28;20496;-55
2023/10/16 09:24:40;;;;;;;8.57;2.95;;;;;;;;;;5073152;28;20384;-55
2023/10/16 09:27:13;;;;;;;6.72;2.72;;;;;;;;;;5072059;28;20513;-55
2023/10/16 09:29:43;;;;;;;2.88;2.08;;;;;;;;;;5073663;28;20048;-55
2023/10/16 09:32:10;;;;;;;8.23;2.85;;;;;;;;;;5064445;28;20517;-55
2023/10/16 09:34:35;;;;;;;10.63;3.25;;;;;;;;;;5073037;28;20989;-54
2023/10/16 09:37:16;;;;;;;9.77;2.87;;;;;;;;;;5051827;28;20044;-55
2023/10/16 09:39:46;;;;;;;5.00;3.55;;;;;;;;;;5050062;28;20043;-52
2023/10/16 09:42:14;;;;;;;7.40;3.55;;;;;;;;;;5073326;28;20074;-54
2023/10/16 09:44:40;;;;;;;5.05;3.30;;;;;;;;;;5073580;28;20009;-54
2023/10/16 09:47:48;;;;;;;9.30;4.28;;;;;;;;;;5071303;28;20043;-54
2023/10/16 09:50:01;;;;;;;7.55;4.13;;;;;;;;;;5067287;28;20047;-55
2023/10/16 09:52:33;;;;;;;4.45;2.53;;;;;;;;;;5053250;28;20025;-54
2023/10/16 09:55:05;;;;;;;5.38;2.50;;;;;;;;;;5049717;28;20029;-54
2023/10/16 09:57:31;;;;;;;5.55;2.80;;;;;;;;;;5071700;28;20009;-54
2023/10/16 10:00:03;;;;;;;5.72;3.58;;;;;;;;;;5069335;28;20031;-59
2023/10/16 10:02:39;;;;;;;6.32;3.05;;;;;;;;;;5052807;28;20017;-56
2023/10/16 10:05:09;;;;;;;4.40;2.13;;;;;;;;;;5054809;28;20024;-55
2023/10/16 10:07:46;;;;;;;6.95;3.17;;;;;;;;;;5073071;28;20044;-55
2023/10/16 10:13:15;;;;;;;3.42;2.83;;;;;;;;;;5013163;28;20500;-55
2023/10/16 10:15:44;;;;;;;6.22;4.03;;;;;;;;;;5035095;28;20037;-55
2023/10/16 10:21:11;;;;;;;4.88;2.00;;;;;;;;;;5038627;28;20035;-56
2023/10/16 10:23:36;;;;;;;8.40;3.67;;;;;;;;;;5045526;28;20036;-55
2023/10/16 10:26:05;;;;;;;6.00;2.93;;;;;;;;;;5059218;28;20033;-55
2023/10/16 10:28:32;;;;;;;3.67;2.10;;;;;;;;;;5058893;28;20463;-56
2023/10/16 10:31:02;;;;;;;6.40;2.45;;;;;;;;;;5064789;28;20028;-55
2023/10/16 10:33:37;;;;;;;2.90;1.92;;;;;;;;;;5072364;28;20112;-56
2023/10/16 10:36:21;;;;;;;5.85;1.92;;;;;;;;;;5070809;28;20044;-55
2023/10/16 10:38:46;;;;;;;5.30;1.95;;;;;;;;;;5071572;28;20028;-56
2023/10/16 10:41:13;;;;;;;5.45;3.10;;;;;;;;;;5070816;28;20058;-56
2023/10/16 10:43:39;;;;;;;2.55;1.77;;;;;;;;;;5072409;28;20009;-55
2023/10/16 10:46:07;;;;;;;6.68;1.42;;;;;;;;;;5070317;28;20376;-55
2023/10/16 10:48:37;;;;;;;2.67;1.30;;;;;;;;;;5072154;28;20020;-55
2023/10/16 10:51:03;;;;;;;5.00;1.85;;;;;;;;;;5070344;28;20048;-55
2023/10/16 10:53:29;;;;;;;3.83;2.67;;;;;;;;;;5071965;28;20059;-56
2023/10/16 10:55:55;;;;;;;5.10;2.13;;;;;;;;;;5070118;28;20511;-55
2023/10/16 10:58:22;;;;;;;1.50;1.40;;;;;;;;;;5071982;28;20021;-56
2023/10/16 11:00:51;;;;;;;2.00;1.73;;;;;;;;;;5069627;28;20040;-56
2023/10/16 11:03:22;;;;;;;;;;;;;;;;;;5072265;28;20013;-55
2023/10/16 11:05:47;;;;;;;4.47;1.67;;;;;;;;;;5070161;28;19914;-56
2023/10/16 11:10:41;;;;;;;4.63;1.43;;;;;;;;;;5069891;28;20119;-55
2023/10/16 11:13:08;;;;;;;2.40;1.30;;;;;;;;;;5071638;28;20177;-56
2023/10/16 11:15:33;;;;;;;2.05;1.40;;;;;;;;;;5070097;28;20047;-57
2023/10/16 11:18:05;;;;;;;6.23;1.60;;;;;;;;;;5071189;28;20024;-56
2023/10/16 11:20:36;;;;;;;2.25;1.40;;;;;;;;;;5070247;28;20527;-55
2023/10/16 11:23:12;;;;;;;3.78;2.30;;;;;;;;;;5071035;28;20024;-56
2023/10/16 11:25:37;;;;;;;2.85;1.73;;;;;;;;;;5069904;28;20036;-55
2023/10/16 11:28:07;;;;;;;5.63;1.43;;;;;;;;;;5071059;28;20407;-55
2023/10/16 11:30:38;;;;;;;6.10;1.95;;;;;;;;;;5069557;28;20535;-55
2023/10/16 11:33:03;;;;;;;4.15;1.40;;;;;;;;;;5071241;28;20017;-55
2023/10/16 11:35:29;;;;;;;2.75;1.90;;;;;;;;;;5069792;28;20052;-55
2023/10/16 11:38:04;;;;;;;5.38;1.70;;;;;;;;;;5070635;28;20047;-55
2023/10/16 11:40:42;;;;;;;8.98;3.65;;;;;;;;;;5069715;28;20039;-55
2023/10/16 11:43:08;;;;;;;1.90;1.73;;;;;;;;;;5068639;28;20012;-55
2023/10/16 11:45:33;;;;;;;2.55;1.95;;;;;;;;;;5069020;28;20086;-55
2023/10/16 11:48:35;;;;;;;3.13;2.15;;;;;;;;;;5070496;28;20103;-55
2023/10/16 11:51:08;;;;;;;7.75;1.95;;;;;;;;;;5069220;28;20039;-55
2023/10/16 11:53:36;;;;;;;16.10;2.90;;;;;;;;;;5070675;28;20024;-55
2023/10/16 11:56:01;;;;;;;9.45;3.08;;;;;;;;;;5069393;28;20036;-55
2023/10/16 11:58:26;;;;;;;1.40;1.30;;;;;;;;;;5070928;28;20024;-56
2023/10/16 12:00:57;;;;;;;6.63;1.45;;;;;;;;;;5067460;28;20033;-56
2023/10/16 12:03:26;;;;;;;4.07;1.75;;;;;;;;;;5069631;28;20023;-56
2023/10/16 12:05:51;;;;;;;;;;;;;;;;;;5068666;28;20029;-56
2023/10/16 12:08:18;;;;;;;3.27;1.73;;;;;;;;;;5069049;28;19959;-56
2023/10/16 12:10:46;;;;;;;7.80;1.98;;;;;;;;;;5068334;28;20029;-56
2023/10/16 12:13:12;;;;;;;9.75;2.10;;;;;;;;;;5069511;28;20471;-56
2023/10/16 12:15:37;;;;;;;2.60;1.80;;;;;;;;;;5068704;28;20065;-56
2023/10/16 12:18:03;;;;;;;3.77;2.13;;;;;;;;;;5070347;28;20024;-56
2023/10/16 12:20:28;;;;;;;3.92;1.80;;;;;;;;;;5069193;28;20037;-56
2023/10/16 12:22:54;;;;;;;16.10;3.67;;;;;;;;;;5069795;28;20024;-55
2023/10/16 12:25:21;;;;;;;8.32;1.88;;;;;;;;;;5069394;28;20025;-55
2023/10/16 12:27:46;;;;;;;2.33;1.65;;;;;;;;;;5070384;28;20048;-55
2023/10/16 12:30:15;;;;;;;5.90;1.60;;;;;;;;;;5068991;28;20048;-55
2023/10/16 12:32:40;;;;;;;15.43;3.05;;;;;;;;;;5070689;28;20480;-55
2023/10/16 12:35:11;;;;;;;8.23;1.83;;;;;;;;;;5068723;28;20063;-55
2023/10/16 12:37:36;;;;;;;4.68;1.55;;;;;;;;;;5069979;28;20044;-55
2023/10/16 12:42:45;;;;;;;2.42;2.17;;;;;;;;;;5068097;28;20557;-55
2023/10/16 12:45:11;;;;;;;5.47;2.40;;;;;;;;;;5068581;28;20036;-56
2023/10/16 12:47:36;;;;;;;4.57;2.83;;;;;;;;;;5068627;28;20017;-56
2023/10/16 12:50:04;;;;;;;10.20;1.95;;;;;;;;;;5066870;28;20488;-56
2023/10/16 12:52:29;;;;;;;3.88;1.98;;;;;;;;;;5068360;28;20023;-56
2023/10/16 12:54:56;;;;;;;4.13;1.73;;;;;;;;;;5067133;28;20016;-56
2023/10/16 12:57:21;;;;;;;2.10;1.63;;;;;;;;;;5068439;28;20020;-56
2023/10/16 12:59:46;;;;;;;10.00;2.55;;;;;;;;;;5066064;28;20087;-55
2023/10/16 13:02:11;;;;;;;4.57;2.00;;;;;;;;;;5068627;28;20027;-56
2023/10/16 13:04:37;;;;;;;13.83;2.50;;;;;;;;;;5069763;28;20015;-56
2023/10/16 13:07:02;;;;;;;6.57;1.55;;;;;;;;;;5067877;28;20455;-56
2023/10/16 13:09:30;;;;;;;4.60;2.60;;;;;;;;;;5070445;28;20126;-56
2023/10/16 13:11:56;;;;;;;6.45;2.38;;;;;;;;;;5068384;28;20553;-56
2023/10/16 13:14:21;;;;;;;3.40;1.83;;;;;;;;;;5069898;28;20119;-56
2023/10/16 13:16:57;;;;;;;6.13;1.60;;;;;;;;;;5068339;28;20032;-56
2023/10/16 13:19:22;;;;;;;5.55;2.45;;;;;;;;;;5070202;28;20020;-56
2023/10/16 13:21:51;;;;;;;9.82;2.97;;;;;;;;;;5067827;28;20119;-56
2023/10/16 13:24:19;;;;;;;8.98;3.28;;;;;;;;;;5070257;28;20370;-56
2023/10/16 13:26:47;;;;;;;5.88;3.42;;;;;;;;;;5072301;28;20033;-56
2023/10/16 13:29:13;;;;;;;4.85;2.22;;;;;;;;;;5073287;28;20434;-56
2023/10/16 13:31:45;;;;;;;4.35;1.65;;;;;;;;;;5072228;28;20033;-56
2023/10/16 13:34:17;;;;;;;4.78;1.45;;;;;;;;;;5073544;28;20055;-56
2023/10/16 13:36:56;;;;;;;6.72;2.25;;;;;;;;;;5071674;28;20517;-56
2023/10/16 13:39:24;;;;;;;4.53;2.08;;;;;;;;;;5073221;28;20025;-56
2023/10/16 13:41:52;;;;;;;7.85;2.25;;;;;;;;;;5071932;28;20037;-56
2023/10/16 13:44:22;;;;;;;7.30;2.50;;;;;;;;;;5072837;28;20525;-56
2023/10/16 13:46:48;;;;;;;9.40;2.10;;;;;;;;;;5071305;28;20400;-56
2023/10/16 13:49:14;;;;;;;8.43;4.13;;;;;;;;;;5069684;28;20028;-56
2023/10/16 13:51:40;;;;;;;4.82;2.65;;;;;;;;;;5071372;28;20504;-56
2023/10/16 13:54:11;;;;;;;9.82;2.03;;;;;;;;;;5072926;28;20025;-56
2023/10/16 13:56:36;;;;;;;6.93;2.17;;;;;;;;;;5071490;28;20074;-55
2023/10/16 13:59:03;;;;;;;3.03;1.87;;;;;;;;;;5072442;28;20051;-56
2023/10/16 14:01:30;;;;;;;7.97;1.90;;;;;;;;;;5071905;28;20450;-56
2023/10/16 14:03:58;;;;;;;2.97;2.42;;;;;;;;;;5072923;28;20013;-56
2023/10/16 14:06:24;;;;;;;2.17;1.83;;;;;;;;;;5071451;28;20119;-56
2023/10/16 14:08:49;;;;;;;3.90;1.95;;;;;;;;;;5071923;28;20503;-56
2023/10/16 14:11:14;;;;;;;9.30;3.47;;;;;;;;;;5070230;28;20090;-56
2023/10/16 14:13:40;;;;;;;5.73;2.17;;;;;;;;;;5071048;28;20016;-56
2023/10/16 14:16:11;;;;;;;17.70;2.15;;;;;;;;;;5070583;28;20048;-56
2023/10/16 14:18:42;;;;;;;5.22;2.25;;;;;;;;;;5071629;28;20031;-56
2023/10/16 14:21:11;;;;;;;21.73;4.30;;;;;;;;;;5070493;28;20182;-56
2023/10/16 14:23:38;;;;;;;3.13;1.55;;;;;;;;;;5072892;28;20020;-56
2023/10/16 14:26:10;;;;;;;16.27;3.67;;;;;;;;;;5071219;28;20031;-56
2023/10/16 14:28:40;;;;;;;4.00;2.70;;;;;;;;;;5072165;28;20070;-55
2023/10/16 14:31:09;;;;;;;3.20;1.92;;;;;;;;;;5070856;28;20040;-56
2023/10/16 14:33:36;;;;;;;6.78;3.75;;;;;;;;;;5072201;28;20020;-56
2023/10/16 14:36:04;;;;;;;6.95;2.05;;;;;;;;;;5069643;28;20040;-56
2023/10/16 14:38:29;;;;;;;4.90;2.90;;;;;;;;;;5072110;28;20360;-56
2023/10/16 14:41:06;;;;;;;6.37;1.93;;;;;;;;;;5070014;28;20103;-56
2023/10/16 14:43:34;;;;;;;8.63;1.98;;;;;;;;;;5071443;28;20526;-56
2023/10/16 14:46:01;;;;;;;9.32;2.92;;;;;;;;;;5067123;28;20056;-56
2023/10/16 14:48:26;;;;;;;6.30;3.40;;;;;;;;;;5065105;28;20017;-56
2023/10/16 14:50:51;;;;;;;6.23;2.83;;;;;;;;;;5059633;28;20041;-56
2023/10/16 14:53:20;;;;;;;7.00;2.00;;;;;;;;;;5052014;28;20419;-56
2023/10/16 14:55:48;;;;;;;8.90;3.55;;;;;;;;;;5053563;28;20044;-56
2023/10/16 14:58:14;;;;;;;3.88;2.88;;;;;;;;;;5070955;28;20031;-56
2023/10/16 15:00:44;;;;;;;9.95;3.08;;;;;;;;;;5070389;28;20036;-56
2023/10/16 15:03:13;;;;;;;11.85;3.00;;;;;;;;;;5071511;28;20029;-56
2023/10/16 15:05:39;;;;;;;;;;;;;;;;;;5070670;28;20052;-56
2023/10/16 15:08:05;;;;;;;6.72;2.17;;;;;;;;;;5071701;28;19947;-56
2023/10/16 15:10:32;;;;;;;8.82;3.13;;;;;;;;;;5070277;28;20065;-56
2023/10/16 15:12:57;;;;;;;4.88;2.15;;;;;;;;;;5064888;28;20036;-55
2023/10/16 15:15:23;;;;;;;10.03;2.90;;;;;;;;;;5064133;28;20435;-58
2023/10/16 15:17:48;;;;;;;4.63;2.20;;;;;;;;;;5070821;28;20020;-55
2023/10/16 15:20:13;;;;;;;8.48;3.10;;;;;;;;;;5069473;28;20547;-56
2023/10/16 15:22:42;;;;;;;3.67;2.10;;;;;;;;;;5070788;28;20032;-56
2023/10/16 15:25:07;;;;;;;;;;;;;;;;;;5070142;28;20487;-55
2023/10/16 15:27:32;;;;;;;6.47;2.70;;;;;;;;;;5070224;28;20591;-56
2023/10/16 15:29:57;;;;;;;4.63;2.70;;;;;;;;;;5068489;28;20105;-55
2023/10/16 15:32:22;;;;;;;7.72;2.13;;;;;;;;;;5070966;28;20016;-55
2023/10/16 15:34:48;;;;;;;3.80;2.22;;;;;;;;;;5068624;28;20045;-55
2023/10/16 15:37:13;;;;;;;9.80;3.33;;;;;;;;;;5071362;28;20021;-55
2023/10/16 15:39:38;;;;;;;7.22;3.22;;;;;;;;;;5069720;28;20020;-51
2023/10/16 15:42:03;;;;;;;6.15;3.92;;;;;;;;;;5070503;28;20025;-56
2023/10/16 15:44:29;;;;;;;8.33;3.30;;;;;;;;;;5070460;28;20530;-56
2023/10/16 15:46:54;;;;;;;5.30;2.92;;;;;;;;;;5069149;28;20453;-55
2023/10/16 15:49:19;;;;;;;6.33;2.10;;;;;;;;;;5070604;28;20024;-55
2023/10/16 15:51:44;;;;;;;9.60;3.03;;;;;;;;;;5069233;28;21000;-55
2023/10/16 15:54:14;;;;;;;5.20;3.40;;;;;;;;;;5070511;28;20999;-55
2023/10/16 15:56:39;;;;;;;4.07;1.85;;;;;;;;;;5069229;28;20473;-55
2023/10/16 15:59:05;;;;;;;7.25;2.17;;;;;;;;;;5069837;28;20519;-54
2023/10/16 16:01:30;;;;;;;9.17;2.77;;;;;;;;;;5069298;28;20396;-55
2023/10/16 16:03:57;;;;;;;8.23;2.97;;;;;;;;;;5070624;28;20012;-55
2023/10/16 16:06:24;;;;;;;6.20;2.90;;;;;;;;;;5067101;28;20463;-55
2023/10/16 16:08:49;;;;;;;2.58;2.35;;;;;;;;;;5059576;28;20379;-59
2023/10/16 16:11:14;;;;;;;6.93;2.63;;;;;;;;;;5062671;28;20069;-55
2023/10/16 16:13:40;;;;;;;4.30;2.63;;;;;;;;;;5064528;28;20439;-55
2023/10/16 16:16:09;;;;;;;10.20;4.13;;;;;;;;;;5052856;28;20514;-55